DLH1242 EDDN-EDDL
Flight info
| Callsign | DLH1242 |
|---|---|
| Flight time | N/A |
| Altitude | 24000 |
| Route | SULUS1G SULUS L604 MASEK Z52 ARPEG Z850 ADEMI T854 DOMUX DOMUX1A |
| Aircraft | A320/M-SDE3FGHIRWY/LB1 |
Departure
| Time | 2026-05-04 18:00 |
|---|---|
| Airport | Nuremberg Airport (EDDN) |
Arrival
| Time | N/A |
|---|---|
| Airport | Düsseldorf Airport (EDDL) |
| Time | Latitude | Longitude | Altitude | Speed | Heading |
|---|---|---|---|---|---|
| 2026-05-04 16:49 | 49.49525 | 11.07660 | 1023 ft | 0 kts | 188° |
| 2026-05-04 17:42 | 49.49531 | 11.07661 | 1024 ft | 2 kts | 186° |
| 2026-05-04 17:43 | 49.49540 | 11.07662 | 1026 ft | 0 kts | 195° |
| 2026-05-04 17:43 | 49.49548 | 11.07665 | 1025 ft | 2 kts | 191° |
| 2026-05-04 17:43 | 49.49560 | 11.07668 | 1028 ft | 0 kts | 185° |
| 2026-05-04 17:44 | 49.49556 | 11.07667 | 1027 ft | 3 kts | 185° |
| 2026-05-04 17:44 | 49.49552 | 11.07667 | 1026 ft | 0 kts | 185° |
| 2026-05-04 17:46 | 49.49553 | 11.07667 | 1026 ft | 2 kts | 185° |
| 2026-05-04 17:47 | 49.49569 | 11.07665 | 1027 ft | 2 kts | 194° |
| 2026-05-04 17:47 | 49.49585 | 11.07664 | 1029 ft | 2 kts | 102° |
| 2026-05-04 17:47 | 49.49590 | 11.07645 | 1030 ft | 2 kts | 280° |
| 2026-05-04 17:47 | 49.49592 | 11.07658 | 1030 ft | 0 kts | 102° |
| 2026-05-04 17:48 | 49.49592 | 11.07662 | 1030 ft | 0 kts | 96° |
| 2026-05-04 17:51 | 49.49583 | 11.07785 | 1030 ft | 17 kts | 100° |
| 2026-05-04 17:51 | 49.49570 | 11.07934 | 1031 ft | 13 kts | 98° |
| 2026-05-04 17:52 | 49.49556 | 11.08082 | 1030 ft | 15 kts | 98° |
| 2026-05-04 17:52 | 49.49539 | 11.08249 | 1031 ft | 17 kts | 98° |
| 2026-05-04 17:52 | 49.49573 | 11.08361 | 1033 ft | 12 kts | 12° |
| 2026-05-04 17:52 | 49.49616 | 11.08450 | 1032 ft | 11 kts | 99° |
| 2026-05-04 17:53 | 49.49604 | 11.08559 | 1033 ft | 9 kts | 98° |
| 2026-05-04 17:53 | 49.49598 | 11.08643 | 1034 ft | 9 kts | 91° |
| 2026-05-04 17:53 | 49.49590 | 11.08733 | 1035 ft | 13 kts | 99° |
| 2026-05-04 17:53 | 49.49575 | 11.08855 | 1037 ft | 11 kts | 99° |
| 2026-05-04 17:54 | 49.49565 | 11.08954 | 1038 ft | 11 kts | 99° |
| 2026-05-04 17:54 | 49.49548 | 11.09127 | 1038 ft | 20 kts | 96° |
| 2026-05-04 17:54 | 49.49532 | 11.09315 | 1042 ft | 6 kts | 98° |
| 2026-05-04 17:54 | 49.49536 | 11.09364 | 1042 ft | 4 kts | 60° |
| 2026-05-04 17:55 | 49.49561 | 11.09425 | 1042 ft | 12 kts | 57° |
| 2026-05-04 17:55 | 49.49599 | 11.09499 | 1043 ft | 0 kts | 51° |
| 2026-05-04 17:57 | 49.49645 | 11.09563 | 1045 ft | 18 kts | 30° |
| 2026-05-04 17:58 | 49.49706 | 11.09458 | 1043 ft | 17 kts | 276° |
| 2026-05-04 17:58 | 49.49710 | 11.09418 | 1043 ft | 0 kts | 278° |
| 2026-05-04 17:59 | 49.49721 | 11.09295 | 1042 ft | 50 kts | 277° |
| 2026-05-04 18:00 | 49.49843 | 11.08119 | 1036 ft | 165 kts | 280° |
| 2026-05-04 18:00 | 49.50055 | 11.06194 | 1861 ft | 198 kts | 281° |
| 2026-05-04 18:00 | 49.50294 | 11.03951 | 3035 ft | 226 kts | 281° |
| 2026-05-04 18:00 | 49.50525 | 11.01581 | 4302 ft | 253 kts | 278° |
| 2026-05-04 18:01 | 49.50783 | 10.98813 | 5709 ft | 283 kts | 276° |
| 2026-05-04 18:01 | 49.51265 | 10.95822 | 6474 ft | 335 kts | 294° |
| 2026-05-04 18:01 | 49.52738 | 10.92887 | 7186 ft | 375 kts | 319° |
| 2026-05-04 18:02 | 49.57102 | 10.90741 | 8533 ft | 312 kts | 2° |
| 2026-05-04 18:02 | 49.59091 | 10.90819 | 9225 ft | 301 kts | 352° |
| 2026-05-04 18:02 | 49.61046 | 10.90126 | 9940 ft | 301 kts | 343° |
| 2026-05-04 18:02 | 49.63085 | 10.89302 | 10642 ft | 320 kts | 343° |
| 2026-05-04 18:03 | 49.65328 | 10.88409 | 11395 ft | 343 kts | 343° |
| 2026-05-04 18:03 | 49.67691 | 10.87500 | 12140 ft | 357 kts | 343° |
| 2026-05-04 18:03 | 49.70055 | 10.86621 | 12881 ft | 364 kts | 344° |
| 2026-05-04 18:03 | 49.72048 | 10.85893 | 13502 ft | 368 kts | 344° |
| 2026-05-04 18:04 | 49.74471 | 10.85015 | 14196 ft | 373 kts | 344° |
| 2026-05-04 18:04 | 49.76736 | 10.84198 | 14821 ft | 376 kts | 344° |
| 2026-05-04 18:04 | 49.81602 | 10.82433 | 16186 ft | 382 kts | 343° |
| 2026-05-04 18:05 | 49.84141 | 10.81502 | 16917 ft | 386 kts | 343° |
| 2026-05-04 18:05 | 49.86668 | 10.80574 | 17654 ft | 389 kts | 343° |
| 2026-05-04 18:05 | 49.89370 | 10.79577 | 18422 ft | 393 kts | 343° |
| 2026-05-04 18:05 | 49.91963 | 10.78622 | 18801 ft | 397 kts | 343° |